This is the latest recevied weather packets stored in our database for station/object SQ4IXR-4. If no packets are shown the sender has not sent any weather packets the latest 10 day(s).
| Time | Temp. | Humidity | Pressure | Rain* | Wind** | Luminosity | Snow |
|---|---|---|---|---|---|---|---|
| 1778078376 | 27.22° C | 28% | 1007 hPa | - | - | - | - |
| 1778077554 | 27.22° C | 26% | 1006.9 hPa | - | - | - | - |
| 1778076732 | 28.89° C | 24% | 1006.5 hPa | - | - | - | - |
| 1778075909 | 29.44° C | 23% | 1006.6 hPa | - | - | - | - |
| 1778075082 | 28.89° C | 23% | 1006.4 hPa | - | - | - | - |
| 1778074258 | 28.33° C | 24% | 1006.5 hPa | - | - | - | - |
| 1778073431 | 27.78° C | 24% | 1006.7 hPa | - | - | - | - |
| 1778072610 | 28.33° C | 23% | 1006.8 hPa | - | - | - | - |
| 1778071785 | 29.44° C | 22% | 1006.9 hPa | - | - | - | - |
| 1778070958 | 28.33° C | 23% | 1006.9 hPa | - | - | - | - |
| 1778070140 | 30° C | 20% | 1006.8 hPa | - | - | - | - |
| 1778069321 | 31.67° C | 22% | 1006.7 hPa | - | - | - | - |
| 1778068481 | 33.89° C | 20% | 1006.7 hPa | - | - | - | - |
| 1778067655 | 32.22° C | 22% | 1007 hPa | - | - | - | - |
| 1778066833 | 28.89° C | 26% | 1007.5 hPa | - | - | - | - |
| 1778066015 | 30° C | 24% | 1007.7 hPa | - | - | - | - |
| 1778065185 | 29.44° C | 25% | 1007.9 hPa | - | - | - | - |
| 1778064358 | 28.89° C | 27% | 1008.2 hPa | - | - | - | - |
| 1778063533 | 28.89° C | 31% | 1008.1 hPa | - | - | - | - |
| 1778062709 | 28.33° C | 32% | 1008.4 hPa | - | - | - | - |
| 1778061896 | 33.89° C | 25% | 1008.3 hPa | - | - | - | - |
| 1778061066 | 29.44° C | 31% | 1008.6 hPa | - | - | - | - |
| 1778060241 | 28.89° C | 33% | 1008.9 hPa | - | - | - | - |
| 1778059430 | 30° C | 30% | 1008.8 hPa | - | - | - | - |
| 1778058607 | 32.78° C | 26% | 1008.8 hPa | - | - | - | - |
* Rain since midnight (hover to see other rain measurements)
** Current wind speed in m/s (hover to see current wind gust speed)